Kemi-Tornio Airport

EFKE · Lapland, 芬兰

罗盘
风向 的 风向 170° Kemi-Tornio Airport 18/36
风: 6 kt, 2 beaufort

6 kt

2 kt
改变
0 ft 1.000 2.000 3.000 4.000 5.000
Cloud Cloud Cloud Cloud Cloud Cloud Cloud Cloud
OVC 400
METAR EFKE 030120Z AUTO 17006KT 9999 OVC004 01/00 Q1023

METAR Kemi-Tornio Airport - EFKE/KEM

Kemi-Tornio Airport是,芬兰中的中型机场。 该机场位于纬度65,78190和经度24,58245。 该机场有一条跑道: 18/36. 本场的ICAO机场代码为EFKE。 该机场的IATA代码为KEM。 机场在Finland FIR中。

该航空气象观测是针对Kemi-Tornio Airport在2024年3月3日 03:20, 当地时间进行的。

机场观察

风向为170°,速度为6 kt。

可见度为10 km 或者更多。

有乌云密布在400 ft的高度。 破损或更高的上限为400 ft。

温度为1 °C,阵风为-4 °C。 海平面上的气压为1023 hPa (QNH)。

白天

今天,太阳从07:24升起,在17:42降落。 这适用于Kemi-Tornio Airport,世界夏令时可能有所不同。 当地时间与世界标准时间之间的时差为+2 小时。 当前,没有夏令时有效。

公司介绍

在这个机场,你可以找到跳伞中心。 本场上唯一已知的公司是Parachuting Club of Kemi - DZ Kemi。

体会

到Vliegles.nl去找飞行课程,跳伞和其他飞行体验。 浏览页面,了解Kemi-Tornio Airport附近所有可用的活动。 你也可以使用搜索功能来寻找你所在地附近的特定飞行课程、跳伞或其他飞行体验。

跑道

Id 标题 侧风 逆风 侧风 %
18/36 187°-007° 2 kt 6 kt 29 %

逆风成分最大的方向会被突出显示,并用于横风计算。 这并不一定意味着这个方向在使用。

乌云

400 ft OVC 乌云密布

温度 & 天气

温度 1 °C
露点 0 °C
相对湿度 93%
风寒 -4 °C
Kp-index 3 (0-9)

白天

日出
07:24 (3:45)
中午
12:33
日落
17:42

小工具

你想在你的网站上有一个关于Kemi-Tornio Airport的当前航空天气(METAR)的小部件吗?

显示HTML代码
?>